sensor_id;sensor_type;location;lat;lon;timestamp;temperature;humidity
16995;DHT22;8614;48.522;9.206;2023-09-30T00:00:47;16.30;99.90
16995;DHT22;8614;48.522;9.206;2023-09-30T00:03:13;16.30;99.90
16995;DHT22;8614;48.522;9.206;2023-09-30T00:05:40;16.20;99.90
16995;DHT22;8614;48.522;9.206;2023-09-30T00:08:07;16.10;99.90
16995;DHT22;8614;48.522;9.206;2023-09-30T00:10:35;16.10;99.90
16995;DHT22;8614;48.522;9.206;2023-09-30T00:13:02;16.00;99.90
16995;DHT22;8614;48.522;9.206;2023-09-30T00:15:29;16.00;99.90
16995;DHT22;8614;48.522;9.206;2023-09-30T00:17:56;15.90;99.90
16995;DHT22;8614;48.522;9.206;2023-09-30T00:20:23;15.90;99.90
16995;DHT22;8614;48.522;9.206;2023-09-30T00:22:49;15.80;99.90
16995;DHT22;8614;48.522;9.206;2023-09-30T00:25:16;15.80;99.90
16995;DHT22;8614;48.522;9.206;2023-09-30T00:27:44;15.70;99.90
16995;DHT22;8614;48.522;9.206;2023-09-30T00:30:11;15.70;99.90
16995;DHT22;8614;48.522;9.206;2023-09-30T00:32:38;15.70;99.90
16995;DHT22;8614;48.522;9.206;2023-09-30T00:35:06;15.70;99.90
16995;DHT22;8614;48.522;9.206;2023-09-30T00:37:37;15.70;99.90
16995;DHT22;8614;48.522;9.206;2023-09-30T00:40:05;15.70;99.90
16995;DHT22;8614;48.522;9.206;2023-09-30T00:42:32;15.80;99.90
16995;DHT22;8614;48.522;9.206;2023-09-30T00:45:00;15.70;99.90
16995;DHT22;8614;48.522;9.206;2023-09-30T00:47:30;15.80;99.90
16995;DHT22;8614;48.522;9.206;2023-09-30T00:49:59;15.80;99.90
16995;DHT22;8614;48.522;9.206;2023-09-30T00:52:27;15.80;99.90
16995;DHT22;8614;48.522;9.206;2023-09-30T00:54:54;15.80;99.90
16995;DHT22;8614;48.522;9.206;2023-09-30T00:57:21;15.80;99.90
16995;DHT22;8614;48.522;9.206;2023-09-30T00:59:50;15.80;99.90
16995;DHT22;8614;48.522;9.206;2023-09-30T01:02:18;15.70;99.90
16995;DHT22;8614;48.522;9.206;2023-09-30T01:04:45;15.60;99.90
16995;DHT22;8614;48.522;9.206;2023-09-30T01:07:12;15.60;99.90
16995;DHT22;8614;48.522;9.206;2023-09-30T01:09:39;15.60;99.90
16995;DHT22;8614;48.522;9.206;2023-09-30T01:12:06;15.50;99.90
16995;DHT22;8614;48.522;9.206;2023-09-30T01:14:34;15.50;99.90
16995;DHT22;8614;48.522;9.206;2023-09-30T01:17:03;15.50;99.90
16995;DHT22;8614;48.522;9.206;2023-09-30T01:19:35;15.40;99.90
16995;DHT22;8614;48.522;9.206;2023-09-30T01:22:03;15.40;99.90
16995;DHT22;8614;48.522;9.206;2023-09-30T01:24:30;15.40;99.90
16995;DHT22;8614;48.522;9.206;2023-09-30T01:26:57;15.40;99.90
16995;DHT22;8614;48.522;9.206;2023-09-30T01:29:25;15.30;99.90
16995;DHT22;8614;48.522;9.206;2023-09-30T01:31:52;15.30;99.90
16995;DHT22;8614;48.522;9.206;2023-09-30T01:34:19;15.30;99.90
16995;DHT22;8614;48.522;9.206;2023-09-30T01:36:46;15.30;99.90
16995;DHT22;8614;48.522;9.206;2023-09-30T01:39:14;15.20;99.90
16995;DHT22;8614;48.522;9.206;2023-09-30T01:41:41;15.10;99.90
16995;DHT22;8614;48.522;9.206;2023-09-30T01:44:08;15.10;99.90
16995;DHT22;8614;48.522;9.206;2023-09-30T01:46:36;15.10;99.90
16995;DHT22;8614;48.522;9.206;2023-09-30T01:49:03;15.00;99.90
16995;DHT22;8614;48.522;9.206;2023-09-30T01:51:30;15.00;99.90
16995;DHT22;8614;48.522;9.206;2023-09-30T01:53:57;15.00;99.90
16995;DHT22;8614;48.522;9.206;2023-09-30T01:56:25;15.00;99.90
16995;DHT22;8614;48.522;9.206;2023-09-30T01:58:52;15.00;99.90
16995;DHT22;8614;48.522;9.206;2023-09-30T02:01:20;15.00;99.90
16995;DHT22;8614;48.522;9.206;2023-09-30T02:03:47;15.00;99.90
16995;DHT22;8614;48.522;9.206;2023-09-30T02:06:15;15.00;99.90
16995;DHT22;8614;48.522;9.206;2023-09-30T02:08:42;15.00;99.90
16995;DHT22;8614;48.522;9.206;2023-09-30T02:11:11;15.00;99.90
16995;DHT22;8614;48.522;9.206;2023-09-30T02:13:40;15.00;99.90
16995;DHT22;8614;48.522;9.206;2023-09-30T02:16:11;15.10;99.90
16995;DHT22;8614;48.522;9.206;2023-09-30T02:18:39;15.10;99.90
16995;DHT22;8614;48.522;9.206;2023-09-30T02:21:07;15.10;99.90
16995;DHT22;8614;48.522;9.206;2023-09-30T02:23:34;15.10;99.90
16995;DHT22;8614;48.522;9.206;2023-09-30T02:26:01;15.10;99.90
16995;DHT22;8614;48.522;9.206;2023-09-30T02:28:28;15.10;99.90
16995;DHT22;8614;48.522;9.206;2023-09-30T02:30:59;15.10;99.90
16995;DHT22;8614;48.522;9.206;2023-09-30T02:33:26;15.10;99.90
16995;DHT22;8614;48.522;9.206;2023-09-30T02:35:53;15.10;99.90
16995;DHT22;8614;48.522;9.206;2023-09-30T02:38:19;15.10;99.90
16995;DHT22;8614;48.522;9.206;2023-09-30T02:40:47;15.00;99.90
16995;DHT22;8614;48.522;9.206;2023-09-30T02:43:15;15.00;99.90
16995;DHT22;8614;48.522;9.206;2023-09-30T02:45:42;14.90;99.90
16995;DHT22;8614;48.522;9.206;2023-09-30T02:48:11;14.90;99.90
16995;DHT22;8614;48.522;9.206;2023-09-30T02:50:38;14.80;99.90
16995;DHT22;8614;48.522;9.206;2023-09-30T02:53:06;14.80;99.90
16995;DHT22;8614;48.522;9.206;2023-09-30T02:55:32;14.90;99.90
16995;DHT22;8614;48.522;9.206;2023-09-30T02:57:59;14.80;99.90
16995;DHT22;8614;48.522;9.206;2023-09-30T03:00:26;14.80;99.90
16995;DHT22;8614;48.522;9.206;2023-09-30T03:03:00;14.70;99.90
16995;DHT22;8614;48.522;9.206;2023-09-30T03:05:28;14.70;99.90
16995;DHT22;8614;48.522;9.206;2023-09-30T03:07:59;14.70;99.90
16995;DHT22;8614;48.522;9.206;2023-09-30T03:10:27;14.60;99.90
16995;DHT22;8614;48.522;9.206;2023-09-30T03:12:54;14.60;99.90
16995;DHT22;8614;48.522;9.206;2023-09-30T03:15:22;14.60;99.90
16995;DHT22;8614;48.522;9.206;2023-09-30T03:17:49;14.60;99.90
16995;DHT22;8614;48.522;9.206;2023-09-30T03:20:16;14.50;99.90
16995;DHT22;8614;48.522;9.206;2023-09-30T03:22:47;14.50;99.90
16995;DHT22;8614;48.522;9.206;2023-09-30T03:25:16;14.50;99.90
16995;DHT22;8614;48.522;9.206;2023-09-30T03:27:44;14.50;99.90
16995;DHT22;8614;48.522;9.206;2023-09-30T03:30:13;14.50;99.90
16995;DHT22;8614;48.522;9.206;2023-09-30T03:32:41;14.40;99.90
16995;DHT22;8614;48.522;9.206;2023-09-30T03:35:09;14.40;99.90
16995;DHT22;8614;48.522;9.206;2023-09-30T03:37:42;14.30;99.90
16995;DHT22;8614;48.522;9.206;2023-09-30T03:40:11;14.30;99.90
16995;DHT22;8614;48.522;9.206;2023-09-30T03:42:40;14.30;99.90
16995;DHT22;8614;48.522;9.206;2023-09-30T03:45:08;14.20;99.90
16995;DHT22;8614;48.522;9.206;2023-09-30T03:47:35;14.20;99.90
16995;DHT22;8614;48.522;9.206;2023-09-30T03:50:03;14.10;99.90
16995;DHT22;8614;48.522;9.206;2023-09-30T03:52:30;14.10;99.90
16995;DHT22;8614;48.522;9.206;2023-09-30T03:54:59;14.00;99.90
16995;DHT22;8614;48.522;9.206;2023-09-30T03:57:30;14.00;99.90
16995;DHT22;8614;48.522;9.206;2023-09-30T03:59:57;13.90;99.90
16995;DHT22;8614;48.522;9.206;2023-09-30T04:02:24;13.90;99.90
16995;DHT22;8614;48.522;9.206;2023-09-30T04:04:51;13.90;99.90
16995;DHT22;8614;48.522;9.206;2023-09-30T04:07:19;13.80;99.90
16995;DHT22;8614;48.522;9.206;2023-09-30T04:09:47;13.80;99.90
16995;DHT22;8614;48.522;9.206;2023-09-30T04:12:13;13.80;99.90
16995;DHT22;8614;48.522;9.206;2023-09-30T04:14:42;13.70;99.90
16995;DHT22;8614;48.522;9.206;2023-09-30T04:17:09;13.70;99.90
16995;DHT22;8614;48.522;9.206;2023-09-30T04:19:36;13.70;99.90
16995;DHT22;8614;48.522;9.206;2023-09-30T04:22:03;13.70;99.90
16995;DHT22;8614;48.522;9.206;2023-09-30T04:24:31;13.60;99.90
16995;DHT22;8614;48.522;9.206;2023-09-30T04:26:58;13.60;99.90
16995;DHT22;8614;48.522;9.206;2023-09-30T04:29:28;13.60;99.90
16995;DHT22;8614;48.522;9.206;2023-09-30T04:31:56;13.50;99.90
16995;DHT22;8614;48.522;9.206;2023-09-30T04:34:24;13.50;99.90
16995;DHT22;8614;48.522;9.206;2023-09-30T04:36:50;13.50;99.90
16995;DHT22;8614;48.522;9.206;2023-09-30T04:39:18;13.50;99.90
16995;DHT22;8614;48.522;9.206;2023-09-30T04:41:45;13.50;99.90
16995;DHT22;8614;48.522;9.206;2023-09-30T04:44:12;13.60;99.90
16995;DHT22;8614;48.522;9.206;2023-09-30T04:46:39;13.60;99.90
16995;DHT22;8614;48.522;9.206;2023-09-30T04:49:08;13.60;99.90
16995;DHT22;8614;48.522;9.206;2023-09-30T04:51:35;13.60;99.90
16995;DHT22;8614;48.522;9.206;2023-09-30T04:54:03;13.60;99.90
16995;DHT22;8614;48.522;9.206;2023-09-30T04:56:32;13.60;99.90
16995;DHT22;8614;48.522;9.206;2023-09-30T04:58:59;13.60;99.90
16995;DHT22;8614;48.522;9.206;2023-09-30T05:01:26;13.60;99.90
16995;DHT22;8614;48.522;9.206;2023-09-30T05:03:53;13.70;99.90
16995;DHT22;8614;48.522;9.206;2023-09-30T05:06:21;13.70;99.90
16995;DHT22;8614;48.522;9.206;2023-09-30T05:08:48;13.80;99.90
16995;DHT22;8614;48.522;9.206;2023-09-30T05:11:15;13.70;99.90
16995;DHT22;8614;48.522;9.206;2023-09-30T05:13:42;13.80;99.90
16995;DHT22;8614;48.522;9.206;2023-09-30T05:16:08;13.80;99.90
16995;DHT22;8614;48.522;9.206;2023-09-30T05:18:36;13.80;99.90
16995;DHT22;8614;48.522;9.206;2023-09-30T05:21:04;13.80;99.90
16995;DHT22;8614;48.522;9.206;2023-09-30T05:23:33;13.80;99.90
16995;DHT22;8614;48.522;9.206;2023-09-30T05:26:01;13.80;99.90
16995;DHT22;8614;48.522;9.206;2023-09-30T05:28:28;13.90;99.90
16995;DHT22;8614;48.522;9.206;2023-09-30T05:30:55;13.90;99.90
16995;DHT22;8614;48.522;9.206;2023-09-30T05:33:22;13.90;99.90
16995;DHT22;8614;48.522;9.206;2023-09-30T05:35:48;14.00;99.90
16995;DHT22;8614;48.522;9.206;2023-09-30T05:38:15;14.00;99.90
16995;DHT22;8614;48.522;9.206;2023-09-30T05:40:46;14.00;99.90
16995;DHT22;8614;48.522;9.206;2023-09-30T05:43:14;14.00;99.90
16995;DHT22;8614;48.522;9.206;2023-09-30T05:45:41;14.10;99.90
16995;DHT22;8614;48.522;9.206;2023-09-30T05:48:15;14.10;99.90
16995;DHT22;8614;48.522;9.206;2023-09-30T05:50:42;14.10;99.90
16995;DHT22;8614;48.522;9.206;2023-09-30T05:53:09;14.10;99.90
16995;DHT22;8614;48.522;9.206;2023-09-30T05:55:37;14.10;99.90
16995;DHT22;8614;48.522;9.206;2023-09-30T05:58:08;14.20;99.90
16995;DHT22;8614;48.522;9.206;2023-09-30T06:00:35;14.20;99.90
16995;DHT22;8614;48.522;9.206;2023-09-30T06:03:03;14.30;99.90
16995;DHT22;8614;48.522;9.206;2023-09-30T06:05:31;14.30;99.90
16995;DHT22;8614;48.522;9.206;2023-09-30T06:08:01;14.40;99.90
16995;DHT22;8614;48.522;9.206;2023-09-30T06:10:30;14.40;99.90
16995;DHT22;8614;48.522;9.206;2023-09-30T06:12:57;14.50;99.90
16995;DHT22;8614;48.522;9.206;2023-09-30T06:15:25;14.50;99.90
16995;DHT22;8614;48.522;9.206;2023-09-30T06:17:52;14.50;99.90
16995;DHT22;8614;48.522;9.206;2023-09-30T06:20:20;14.50;99.90
16995;DHT22;8614;48.522;9.206;2023-09-30T06:22:48;14.50;99.90
16995;DHT22;8614;48.522;9.206;2023-09-30T06:25:16;14.60;99.90
16995;DHT22;8614;48.522;9.206;2023-09-30T06:27:43;14.60;99.90
16995;DHT22;8614;48.522;9.206;2023-09-30T06:30:11;14.70;99.90
16995;DHT22;8614;48.522;9.206;2023-09-30T06:32:40;14.80;99.90
16995;DHT22;8614;48.522;9.206;2023-09-30T06:35:08;14.90;99.90
16995;DHT22;8614;48.522;9.206;2023-09-30T06:37:36;14.90;99.90
16995;DHT22;8614;48.522;9.206;2023-09-30T06:40:05;15.00;99.90
16995;DHT22;8614;48.522;9.206;2023-09-30T06:42:33;15.10;99.90
16995;DHT22;8614;48.522;9.206;2023-09-30T06:45:00;15.20;99.90
16995;DHT22;8614;48.522;9.206;2023-09-30T06:47:31;15.30;99.90
16995;DHT22;8614;48.522;9.206;2023-09-30T06:50:00;15.40;99.90
16995;DHT22;8614;48.522;9.206;2023-09-30T06:52:33;15.40;99.90
16995;DHT22;8614;48.522;9.206;2023-09-30T06:55:00;15.50;99.90
16995;DHT22;8614;48.522;9.206;2023-09-30T06:57:30;15.50;99.90
16995;DHT22;8614;48.522;9.206;2023-09-30T06:59:57;15.50;99.90
16995;DHT22;8614;48.522;9.206;2023-09-30T07:02:24;15.60;99.90
16995;DHT22;8614;48.522;9.206;2023-09-30T07:04:51;15.70;99.90
16995;DHT22;8614;48.522;9.206;2023-09-30T07:07:19;15.80;99.90
16995;DHT22;8614;48.522;9.206;2023-09-30T07:09:47;15.90;99.90
16995;DHT22;8614;48.522;9.206;2023-09-30T07:12:14;16.10;99.90
16995;DHT22;8614;48.522;9.206;2023-09-30T07:14:41;16.20;99.90
16995;DHT22;8614;48.522;9.206;2023-09-30T07:17:08;16.30;99.90
16995;DHT22;8614;48.522;9.206;2023-09-30T07:19:34;16.30;99.90
16995;DHT22;8614;48.522;9.206;2023-09-30T07:22:02;16.30;99.90
16995;DHT22;8614;48.522;9.206;2023-09-30T07:24:30;16.40;99.90
16995;DHT22;8614;48.522;9.206;2023-09-30T07:26:57;16.50;99.90
16995;DHT22;8614;48.522;9.206;2023-09-30T07:29:24;16.60;99.90
16995;DHT22;8614;48.522;9.206;2023-09-30T07:31:51;16.70;99.90
16995;DHT22;8614;48.522;9.206;2023-09-30T07:34:18;16.70;99.90
16995;DHT22;8614;48.522;9.206;2023-09-30T07:36:45;16.80;99.90
16995;DHT22;8614;48.522;9.206;2023-09-30T07:39:12;16.90;99.90
16995;DHT22;8614;48.522;9.206;2023-09-30T07:41:40;16.90;99.90
16995;DHT22;8614;48.522;9.206;2023-09-30T07:44:07;16.90;99.90
16995;DHT22;8614;48.522;9.206;2023-09-30T07:46:35;17.00;99.90
16995;DHT22;8614;48.522;9.206;2023-09-30T07:49:02;17.10;99.90
16995;DHT22;8614;48.522;9.206;2023-09-30T07:51:29;17.20;99.90
16995;DHT22;8614;48.522;9.206;2023-09-30T07:53:56;17.30;99.90
16995;DHT22;8614;48.522;9.206;2023-09-30T07:56:23;17.30;99.90
16995;DHT22;8614;48.522;9.206;2023-09-30T07:58:52;17.50;99.90
16995;DHT22;8614;48.522;9.206;2023-09-30T08:01:18;17.60;99.90
16995;DHT22;8614;48.522;9.206;2023-09-30T08:03:45;17.80;99.90
16995;DHT22;8614;48.522;9.206;2023-09-30T08:06:12;18.20;99.90
16995;DHT22;8614;48.522;9.206;2023-09-30T08:08:39;18.40;99.90
16995;DHT22;8614;48.522;9.206;2023-09-30T08:11:06;18.60;99.90
16995;DHT22;8614;48.522;9.206;2023-09-30T08:13:34;18.70;99.90
16995;DHT22;8614;48.522;9.206;2023-09-30T08:16:05;18.80;99.90
16995;DHT22;8614;48.522;9.206;2023-09-30T08:18:35;18.80;99.90
16995;DHT22;8614;48.522;9.206;2023-09-30T08:21:02;18.90;99.90
16995;DHT22;8614;48.522;9.206;2023-09-30T08:23:30;19.20;99.90
16995;DHT22;8614;48.522;9.206;2023-09-30T08:25:58;19.20;99.90
16995;DHT22;8614;48.522;9.206;2023-09-30T08:28:25;19.50;99.90
16995;DHT22;8614;48.522;9.206;2023-09-30T08:31:02;19.60;99.90
16995;DHT22;8614;48.522;9.206;2023-09-30T08:33:31;20.00;99.90
16995;DHT22;8614;48.522;9.206;2023-09-30T08:36:02;20.30;99.90
16995;DHT22;8614;48.522;9.206;2023-09-30T08:38:32;20.50;99.90
16995;DHT22;8614;48.522;9.206;2023-09-30T08:40:59;20.70;99.90
16995;DHT22;8614;48.522;9.206;2023-09-30T08:43:28;20.70;99.90
16995;DHT22;8614;48.522;9.206;2023-09-30T08:45:56;20.90;99.90
16995;DHT22;8614;48.522;9.206;2023-09-30T08:48:27;20.70;99.90
16995;DHT22;8614;48.522;9.206;2023-09-30T08:50:55;20.80;99.90
16995;DHT22;8614;48.522;9.206;2023-09-30T08:53:23;20.70;99.90
16995;DHT22;8614;48.522;9.206;2023-09-30T08:55:52;20.50;99.90
16995;DHT22;8614;48.522;9.206;2023-09-30T08:58:19;20.20;99.90
16995;DHT22;8614;48.522;9.206;2023-09-30T09:00:46;20.00;99.90
16995;DHT22;8614;48.522;9.206;2023-09-30T09:03:14;19.70;99.90
16995;DHT22;8614;48.522;9.206;2023-09-30T09:05:42;19.60;99.90
16995;DHT22;8614;48.522;9.206;2023-09-30T09:08:09;19.70;99.90
16995;DHT22;8614;48.522;9.206;2023-09-30T09:10:35;19.60;99.90
16995;DHT22;8614;48.522;9.206;2023-09-30T09:13:11;19.60;99.90
16995;DHT22;8614;48.522;9.206;2023-09-30T09:15:38;20.00;99.90
16995;DHT22;8614;48.522;9.206;2023-09-30T09:18:05;20.40;99.90
16995;DHT22;8614;48.522;9.206;2023-09-30T09:20:32;20.90;99.90
16995;DHT22;8614;48.522;9.206;2023-09-30T09:23:01;21.10;99.90
16995;DHT22;8614;48.522;9.206;2023-09-30T09:25:28;21.40;99.90
16995;DHT22;8614;48.522;9.206;2023-09-30T09:27:55;21.70;99.90
16995;DHT22;8614;48.522;9.206;2023-09-30T09:30:24;21.70;99.90
16995;DHT22;8614;48.522;9.206;2023-09-30T09:32:53;21.80;99.90
16995;DHT22;8614;48.522;9.206;2023-09-30T09:35:23;22.10;99.90
16995;DHT22;8614;48.522;9.206;2023-09-30T09:37:55;22.30;99.90
16995;DHT22;8614;48.522;9.206;2023-09-30T09:40:25;22.40;99.90
16995;DHT22;8614;48.522;9.206;2023-09-30T09:42:53;22.50;99.90
16995;DHT22;8614;48.522;9.206;2023-09-30T09:45:22;22.30;99.90
16995;DHT22;8614;48.522;9.206;2023-09-30T09:47:50;22.20;99.90
16995;DHT22;8614;48.522;9.206;2023-09-30T09:50:19;21.90;99.90
16995;DHT22;8614;48.522;9.206;2023-09-30T09:52:48;22.00;99.90
16995;DHT22;8614;48.522;9.206;2023-09-30T09:55:24;21.70;99.90
16995;DHT22;8614;48.522;9.206;2023-09-30T09:57:53;21.40;99.90
16995;DHT22;8614;48.522;9.206;2023-09-30T10:00:21;21.30;99.90
16995;DHT22;8614;48.522;9.206;2023-09-30T10:02:49;21.10;99.90
16995;DHT22;8614;48.522;9.206;2023-09-30T10:05:18;21.20;99.90
16995;DHT22;8614;48.522;9.206;2023-09-30T10:07:54;21.40;99.90
16995;DHT22;8614;48.522;9.206;2023-09-30T10:10:24;21.40;99.90
16995;DHT22;8614;48.522;9.206;2023-09-30T10:12:51;21.50;99.90
16995;DHT22;8614;48.522;9.206;2023-09-30T10:15:39;21.60;99.90
16995;DHT22;8614;48.522;9.206;2023-09-30T10:18:07;21.50;99.90
16995;DHT22;8614;48.522;9.206;2023-09-30T10:20:38;21.30;99.90
16995;DHT22;8614;48.522;9.206;2023-09-30T10:23:27;21.10;99.90
16995;DHT22;8614;48.522;9.206;2023-09-30T10:26:20;21.10;99.90
16995;DHT22;8614;48.522;9.206;2023-09-30T10:28:48;20.80;99.90
16995;DHT22;8614;48.522;9.206;2023-09-30T10:31:17;20.90;99.90
16995;DHT22;8614;48.522;9.206;2023-09-30T10:34:19;20.70;99.90
16995;DHT22;8614;48.522;9.206;2023-09-30T10:36:48;20.50;99.90
16995;DHT22;8614;48.522;9.206;2023-09-30T10:39:55;20.40;99.90
16995;DHT22;8614;48.522;9.206;2023-09-30T10:42:48;20.20;99.90
16995;DHT22;8614;48.522;9.206;2023-09-30T10:45:44;20.00;99.90
16995;DHT22;8614;48.522;9.206;2023-09-30T10:48:37;20.00;99.90
16995;DHT22;8614;48.522;9.206;2023-09-30T10:51:13;20.10;99.90
16995;DHT22;8614;48.522;9.206;2023-09-30T10:53:48;20.10;99.90
16995;DHT22;8614;48.522;9.206;2023-09-30T10:56:17;20.20;99.90
16995;DHT22;8614;48.522;9.206;2023-09-30T10:58:47;20.20;99.90
16995;DHT22;8614;48.522;9.206;2023-09-30T11:01:16;20.30;99.90
16995;DHT22;8614;48.522;9.206;2023-09-30T11:03:45;20.40;99.90
16995;DHT22;8614;48.522;9.206;2023-09-30T11:06:13;20.50;99.90
16995;DHT22;8614;48.522;9.206;2023-09-30T11:08:48;20.50;99.90
16995;DHT22;8614;48.522;9.206;2023-09-30T11:11:17;20.50;99.90
16995;DHT22;8614;48.522;9.206;2023-09-30T11:13:43;20.60;99.90
16995;DHT22;8614;48.522;9.206;2023-09-30T11:16:12;20.60;99.90
16995;DHT22;8614;48.522;9.206;2023-09-30T11:18:39;20.70;99.90
16995;DHT22;8614;48.522;9.206;2023-09-30T11:21:07;20.70;99.90
16995;DHT22;8614;48.522;9.206;2023-09-30T11:23:35;20.90;99.90
16995;DHT22;8614;48.522;9.206;2023-09-30T11:26:02;20.90;99.90
16995;DHT22;8614;48.522;9.206;2023-09-30T11:28:41;21.00;99.90
16995;DHT22;8614;48.522;9.206;2023-09-30T11:31:09;21.00;99.90
16995;DHT22;8614;48.522;9.206;2023-09-30T11:33:54;21.10;99.90
16995;DHT22;8614;48.522;9.206;2023-09-30T11:36:23;21.10;99.90
16995;DHT22;8614;48.522;9.206;2023-09-30T11:38:51;21.10;99.90
16995;DHT22;8614;48.522;9.206;2023-09-30T11:41:19;21.20;99.90
16995;DHT22;8614;48.522;9.206;2023-09-30T11:44:01;21.20;99.90
16995;DHT22;8614;48.522;9.206;2023-09-30T11:46:30;21.20;99.90
16995;DHT22;8614;48.522;9.206;2023-09-30T11:49:02;21.20;99.90
16995;DHT22;8614;48.522;9.206;2023-09-30T11:51:34;21.20;99.90
16995;DHT22;8614;48.522;9.206;2023-09-30T11:54:09;21.40;99.90
16995;DHT22;8614;48.522;9.206;2023-09-30T11:56:37;21.60;99.90
16995;DHT22;8614;48.522;9.206;2023-09-30T11:59:04;21.60;99.90
16995;DHT22;8614;48.522;9.206;2023-09-30T12:01:40;21.80;99.90
16995;DHT22;8614;48.522;9.206;2023-09-30T12:04:08;22.00;99.90
16995;DHT22;8614;48.522;9.206;2023-09-30T12:06:48;22.10;99.90
16995;DHT22;8614;48.522;9.206;2023-09-30T12:09:16;22.00;99.90
16995;DHT22;8614;48.522;9.206;2023-09-30T12:11:48;22.10;99.90
16995;DHT22;8614;48.522;9.206;2023-09-30T12:14:15;22.20;99.90
16995;DHT22;8614;48.522;9.206;2023-09-30T12:16:42;22.20;99.90
16995;DHT22;8614;48.522;9.206;2023-09-30T12:19:15;22.20;99.90
16995;DHT22;8614;48.522;9.206;2023-09-30T12:21:56;22.30;99.90
16995;DHT22;8614;48.522;9.206;2023-09-30T12:24:23;22.40;99.90
16995;DHT22;8614;48.522;9.206;2023-09-30T12:26:53;22.10;99.90
16995;DHT22;8614;48.522;9.206;2023-09-30T12:29:22;22.10;99.90
16995;DHT22;8614;48.522;9.206;2023-09-30T12:31:50;21.90;99.90
16995;DHT22;8614;48.522;9.206;2023-09-30T12:34:19;21.80;99.90
16995;DHT22;8614;48.522;9.206;2023-09-30T12:36:45;21.90;99.90
16995;DHT22;8614;48.522;9.206;2023-09-30T12:39:13;22.00;99.90
16995;DHT22;8614;48.522;9.206;2023-09-30T12:41:43;22.00;99.90
16995;DHT22;8614;48.522;9.206;2023-09-30T12:44:10;22.00;99.90
16995;DHT22;8614;48.522;9.206;2023-09-30T12:46:38;22.00;99.90
16995;DHT22;8614;48.522;9.206;2023-09-30T12:49:05;22.00;99.90
16995;DHT22;8614;48.522;9.206;2023-09-30T12:51:34;21.90;99.90
16995;DHT22;8614;48.522;9.206;2023-09-30T12:54:02;21.90;99.90
16995;DHT22;8614;48.522;9.206;2023-09-30T12:56:30;21.90;99.90
16995;DHT22;8614;48.522;9.206;2023-09-30T12:58:57;22.00;99.90
16995;DHT22;8614;48.522;9.206;2023-09-30T13:01:24;22.10;99.90
16995;DHT22;8614;48.522;9.206;2023-09-30T13:03:51;22.10;99.90
16995;DHT22;8614;48.522;9.206;2023-09-30T13:06:19;22.20;99.90
16995;DHT22;8614;48.522;9.206;2023-09-30T13:08:47;22.30;99.90
16995;DHT22;8614;48.522;9.206;2023-09-30T13:11:14;22.30;99.90
16995;DHT22;8614;48.522;9.206;2023-09-30T13:13:41;22.30;99.90
16995;DHT22;8614;48.522;9.206;2023-09-30T13:16:10;22.20;99.90
16995;DHT22;8614;48.522;9.206;2023-09-30T13:18:37;21.90;99.90
16995;DHT22;8614;48.522;9.206;2023-09-30T13:21:04;21.70;99.90
16995;DHT22;8614;48.522;9.206;2023-09-30T13:23:31;21.60;99.90
16995;DHT22;8614;48.522;9.206;2023-09-30T13:26:00;21.50;99.90
16995;DHT22;8614;48.522;9.206;2023-09-30T13:28:27;21.40;99.90
16995;DHT22;8614;48.522;9.206;2023-09-30T13:30:54;21.30;99.90
16995;DHT22;8614;48.522;9.206;2023-09-30T13:33:21;21.20;99.90
16995;DHT22;8614;48.522;9.206;2023-09-30T13:35:48;21.10;99.90
16995;DHT22;8614;48.522;9.206;2023-09-30T13:38:15;21.10;99.90
16995;DHT22;8614;48.522;9.206;2023-09-30T13:40:42;21.10;99.90
16995;DHT22;8614;48.522;9.206;2023-09-30T13:43:10;21.10;99.90
16995;DHT22;8614;48.522;9.206;2023-09-30T13:45:37;21.10;99.90
16995;DHT22;8614;48.522;9.206;2023-09-30T13:48:05;21.10;99.90
16995;DHT22;8614;48.522;9.206;2023-09-30T13:50:32;21.10;99.90
16995;DHT22;8614;48.522;9.206;2023-09-30T13:52:59;21.10;99.90
16995;DHT22;8614;48.522;9.206;2023-09-30T13:55:28;21.00;99.90
16995;DHT22;8614;48.522;9.206;2023-09-30T13:57:55;21.00;99.90
16995;DHT22;8614;48.522;9.206;2023-09-30T14:00:23;21.10;99.90
16995;DHT22;8614;48.522;9.206;2023-09-30T14:02:49;21.10;99.90
16995;DHT22;8614;48.522;9.206;2023-09-30T14:05:17;21.10;99.90
16995;DHT22;8614;48.522;9.206;2023-09-30T14:07:45;21.20;99.90
16995;DHT22;8614;48.522;9.206;2023-09-30T14:10:12;21.20;99.90
16995;DHT22;8614;48.522;9.206;2023-09-30T14:15:14;21.20;99.90
16995;DHT22;8614;48.522;9.206;2023-09-30T14:17:42;21.20;99.90
16995;DHT22;8614;48.522;9.206;2023-09-30T14:20:11;21.20;99.90
16995;DHT22;8614;48.522;9.206;2023-09-30T14:22:38;21.20;99.90
16995;DHT22;8614;48.522;9.206;2023-09-30T14:25:06;21.20;99.90
16995;DHT22;8614;48.522;9.206;2023-09-30T14:27:33;21.20;99.90
16995;DHT22;8614;48.522;9.206;2023-09-30T14:30:00;21.10;99.90
16995;DHT22;8614;48.522;9.206;2023-09-30T14:32:27;21.10;99.90
16995;DHT22;8614;48.522;9.206;2023-09-30T14:34:55;21.10;99.90
16995;DHT22;8614;48.522;9.206;2023-09-30T14:37:23;21.10;99.90
16995;DHT22;8614;48.522;9.206;2023-09-30T14:39:50;21.10;99.90
16995;DHT22;8614;48.522;9.206;2023-09-30T14:42:17;21.10;99.90
16995;DHT22;8614;48.522;9.206;2023-09-30T14:44:43;21.00;99.90
16995;DHT22;8614;48.522;9.206;2023-09-30T14:47:10;21.00;99.90
16995;DHT22;8614;48.522;9.206;2023-09-30T14:49:37;21.00;99.90
16995;DHT22;8614;48.522;9.206;2023-09-30T14:52:06;21.00;99.90
16995;DHT22;8614;48.522;9.206;2023-09-30T14:54:32;21.00;99.90
16995;DHT22;8614;48.522;9.206;2023-09-30T14:56:59;20.90;99.90
16995;DHT22;8614;48.522;9.206;2023-09-30T14:59:26;21.00;99.90
16995;DHT22;8614;48.522;9.206;2023-09-30T15:01:53;20.90;99.90
16995;DHT22;8614;48.522;9.206;2023-09-30T15:04:20;20.90;99.90
16995;DHT22;8614;48.522;9.206;2023-09-30T15:06:47;20.90;99.90
16995;DHT22;8614;48.522;9.206;2023-09-30T15:09:16;20.90;99.90
16995;DHT22;8614;48.522;9.206;2023-09-30T15:11:43;20.80;99.90
16995;DHT22;8614;48.522;9.206;2023-09-30T15:14:10;20.70;99.90
16995;DHT22;8614;48.522;9.206;2023-09-30T15:16:37;20.70;99.90
16995;DHT22;8614;48.522;9.206;2023-09-30T15:19:04;20.70;99.90
16995;DHT22;8614;48.522;9.206;2023-09-30T15:21:31;20.70;99.90
16995;DHT22;8614;48.522;9.206;2023-09-30T15:23:57;20.70;99.90
16995;DHT22;8614;48.522;9.206;2023-09-30T15:26:27;20.70;99.90
16995;DHT22;8614;48.522;9.206;2023-09-30T15:28:54;20.60;99.90
16995;DHT22;8614;48.522;9.206;2023-09-30T15:31:26;20.50;99.90
16995;DHT22;8614;48.522;9.206;2023-09-30T15:33:53;20.40;99.90
16995;DHT22;8614;48.522;9.206;2023-09-30T15:36:20;20.40;99.90
16995;DHT22;8614;48.522;9.206;2023-09-30T15:38:46;20.40;99.90
16995;DHT22;8614;48.522;9.206;2023-09-30T15:41:14;20.30;99.90
16995;DHT22;8614;48.522;9.206;2023-09-30T15:43:42;20.30;99.90
16995;DHT22;8614;48.522;9.206;2023-09-30T15:46:09;20.30;99.90
16995;DHT22;8614;48.522;9.206;2023-09-30T15:48:45;20.30;99.90
16995;DHT22;8614;48.522;9.206;2023-09-30T15:51:12;20.30;99.90
16995;DHT22;8614;48.522;9.206;2023-09-30T15:53:39;20.30;99.90
16995;DHT22;8614;48.522;9.206;2023-09-30T15:56:06;20.30;99.90